createdAt,value
2022-11-16T00:00:19.050Z,99607.12
2022-11-16T00:05:36.106Z,99606.16
2022-11-16T00:10:39.555Z,99593.61
2022-11-16T00:15:42.944Z,99585.59
2022-11-16T00:20:46.923Z,99581.54
2022-11-16T00:25:51.038Z,99573.48
2022-11-16T00:31:02.505Z,99569.83
2022-11-16T00:36:08.369Z,99564.98
2022-11-16T00:41:12.155Z,99569.04
2022-11-16T00:46:18.160Z,99562.30
2022-11-16T00:51:23.879Z,99561.80
2022-11-16T00:56:32.566Z,99568.73
2022-11-16T01:01:39.265Z,99566.81
2022-11-16T01:06:45.313Z,99561.61
2022-11-16T01:12:09.693Z,99547.59
2022-11-16T01:17:15.537Z,99545.51
2022-11-16T01:22:19.662Z,99537.25
2022-11-16T01:27:27.541Z,99532.66
2022-11-16T01:32:35.447Z,99532.52
2022-11-16T01:37:42.318Z,99536.65
2022-11-16T01:42:46.205Z,99529.23
2022-11-16T01:47:51.408Z,99522.73
2022-11-16T01:53:00.338Z,99519.10
2022-11-16T01:58:09.796Z,99512.15
2022-11-16T02:03:21.760Z,99506.48
2022-11-16T02:09:12.109Z,99505.88
2022-11-16T02:14:35.277Z,99498.36
2022-11-16T02:19:51.394Z,99496.30
2022-11-16T02:25:06.867Z,99494.38
2022-11-16T02:30:10.468Z,99489.44
2022-11-16T02:35:36.924Z,99491.77
2022-11-16T02:40:45.585Z,99492.23
2022-11-16T02:45:55.061Z,99489.91
2022-11-16T02:50:58.863Z,99491.89
2022-11-16T02:56:02.122Z,99494.05
2022-11-16T03:01:11.091Z,99498.58
2022-11-16T03:06:35.030Z,99499.39
2022-11-16T03:11:59.907Z,99500.88
2022-11-16T03:17:07.716Z,99497.69
2022-11-16T03:22:16.016Z,99496.75
2022-11-16T03:27:45.174Z,99499.75
2022-11-16T03:32:56.409Z,99497.45
2022-11-16T03:38:03.402Z,99492.16
2022-11-16T03:43:07.843Z,99484.68
2022-11-16T03:48:12.167Z,99478.77
2022-11-16T03:53:17.072Z,99475.85
2022-11-16T03:58:20.333Z,99472.80
2022-11-16T04:03:24.225Z,99469.23
2022-11-16T04:08:47.839Z,99468.09
2022-11-16T04:14:10.581Z,99468.10
2022-11-16T04:19:34.766Z,99463.36
2022-11-16T04:24:40.734Z,99459.77
2022-11-16T04:29:44.180Z,99449.20
2022-11-16T04:35:06.230Z,99443.21
2022-11-16T04:40:12.605Z,99451.88
2022-11-16T04:45:34.668Z,99457.39
2022-11-16T04:50:40.105Z,99463.55
2022-11-16T04:55:44.038Z,99457.96
2022-11-16T05:00:47.590Z,99451.52
2022-11-16T05:05:51.175Z,99450.07
2022-11-16T05:10:55.428Z,99449.44
2022-11-16T05:15:58.661Z,99440.02
2022-11-16T05:21:01.944Z,99434.52
2022-11-16T05:26:09.689Z,99435.44
2022-11-16T05:31:13.055Z,99429.64
2022-11-16T05:36:17.005Z,99421.73
2022-11-16T05:41:20.527Z,99420.16
2022-11-16T05:46:25.364Z,99419.83
2022-11-16T05:51:30.386Z,99421.39
2022-11-16T05:56:35.761Z,99416.65
2022-11-16T06:01:39.765Z,99415.86
2022-11-16T06:06:44.477Z,99410.33
2022-11-16T06:11:48.405Z,99398.41
2022-11-16T06:16:54.722Z,99399.17
2022-11-16T06:21:58.057Z,99397.96
2022-11-16T06:27:01.877Z,99394.57
2022-11-16T06:32:05.549Z,99395.67
2022-11-16T06:37:10.272Z,99384.70
2022-11-16T06:42:13.694Z,99379.15
2022-11-16T06:47:17.456Z,99376.70
2022-11-16T06:52:21.474Z,99375.54
2022-11-16T06:57:24.912Z,99373.94
2022-11-16T07:02:28.351Z,99385.33
2022-11-16T07:07:33.669Z,99382.42
2022-11-16T07:12:38.012Z,99389.05
2022-11-16T07:17:42.698Z,99395.05
2022-11-16T07:22:46.262Z,99387.83
2022-11-16T07:27:50.417Z,99381.17
2022-11-16T07:32:59.151Z,99383.55
2022-11-16T07:38:25.496Z,99391.94
2022-11-16T07:43:35.207Z,99388.41
2022-11-16T07:48:47.991Z,99392.19
2022-11-16T07:53:56.435Z,99388.48
2022-11-16T07:59:01.390Z,99391.71
2022-11-16T08:04:07.564Z,99392.33
2022-11-16T08:09:14.021Z,99396.49
2022-11-16T08:14:19.390Z,99395.35
2022-11-16T08:19:25.050Z,99394.41
